Time;durP1;ratioP1;P1;durP2;ratioP2;P2;SDS_P1;SDS_P2;PMS_P1;PMS_P2;Temp;Humidity;BMP_temperature;BMP_pressure;BME280_temperature;BME280_humidity;BME280_pressure;Samples;Min_cycle;Max_cycle;Signal;HPM_P1;HPM_P2
2023/08/22 00:00:17;;;;;;;8.82;2.92;;;;;;;;;;5086198;28;20395;-57
2023/08/22 00:02:43;;;;;;;7.00;3.65;;;;;;;;;;5084665;28;20848;-57
2023/08/22 00:05:09;;;;;;;8.30;4.38;;;;;;;;;;5089313;28;20036;-57
2023/08/22 00:07:36;;;;;;;6.63;3.67;;;;;;;;;;5094368;28;20126;-57
2023/08/22 00:10:03;;;;;;;8.00;4.32;;;;;;;;;;5083317;28;20524;-57
2023/08/22 00:12:29;;;;;;;7.38;3.78;;;;;;;;;;5084261;28;20063;-57
2023/08/22 00:14:56;;;;;;;10.90;5.28;;;;;;;;;;5086308;28;20040;-57
2023/08/22 00:17:24;;;;;;;9.57;4.70;;;;;;;;;;5097601;28;20067;-57
2023/08/22 00:19:50;;;;;;;11.20;5.28;;;;;;;;;;5084372;28;20448;-56
2023/08/22 00:22:17;;;;;;;9.13;4.80;;;;;;;;;;5091527;28;20079;-57
2023/08/22 00:24:43;;;;;;;11.43;5.47;;;;;;;;;;5092182;28;20162;-57
2023/08/22 00:27:11;;;;;;;9.23;6.07;;;;;;;;;;5096106;28;20043;-57
2023/08/22 00:29:38;;;;;;;10.02;5.90;;;;;;;;;;5100765;28;20047;-57
2023/08/22 00:32:04;;;;;;;9.63;5.13;;;;;;;;;;5105731;28;20087;-57
2023/08/22 00:34:30;;;;;;;9.68;4.72;;;;;;;;;;5099447;28;20119;-57
2023/08/22 00:36:56;;;;;;;7.80;4.82;;;;;;;;;;5092021;28;20044;-57
2023/08/22 00:39:24;;;;;;;11.05;5.05;;;;;;;;;;5097082;28;20050;-57
2023/08/22 00:41:50;;;;;;;7.95;4.57;;;;;;;;;;5104577;28;20076;-57
2023/08/22 00:44:16;;;;;;;9.60;4.32;;;;;;;;;;5091904;28;20119;-57
2023/08/22 00:46:42;;;;;;;8.10;4.25;;;;;;;;;;5102611;28;20526;-57
2023/08/22 00:49:09;;;;;;;8.60;3.75;;;;;;;;;;5108863;28;20039;-57
2023/08/22 00:51:37;;;;;;;8.02;4.47;;;;;;;;;;5108655;28;20459;-57
2023/08/22 00:54:04;;;;;;;12.18;4.63;;;;;;;;;;5099879;28;20361;-57
2023/08/22 00:56:30;;;;;;;8.30;4.75;;;;;;;;;;5105897;28;20055;-57
2023/08/22 00:58:58;;;;;;;8.65;4.72;;;;;;;;;;5102319;28;20075;-57
2023/08/22 01:01:24;;;;;;;7.57;4.10;;;;;;;;;;5099343;28;20376;-57
2023/08/22 01:03:50;;;;;;;8.20;4.72;;;;;;;;;;5103209;28;20048;-57
2023/08/22 01:06:28;;;;;;;9.05;4.90;;;;;;;;;;5102983;28;20043;-57
2023/08/22 01:08:58;;;;;;;8.65;5.40;;;;;;;;;;5101090;28;20118;-57
2023/08/22 01:11:32;;;;;;;12.98;5.82;;;;;;;;;;5106316;28;20384;-57
2023/08/22 01:13:59;;;;;;;16.08;6.30;;;;;;;;;;5100771;28;20114;-57
2023/08/22 01:16:25;;;;;;;13.43;6.30;;;;;;;;;;5108434;28;20046;-57
2023/08/22 01:18:51;;;;;;;10.60;7.13;;;;;;;;;;5104081;28;20086;-57
2023/08/22 01:21:19;;;;;;;11.02;6.50;;;;;;;;;;5100122;28;20440;-57
2023/08/22 01:23:45;;;;;;;8.55;5.93;;;;;;;;;;5085401;28;20060;-57
2023/08/22 01:26:12;;;;;;;9.57;5.80;;;;;;;;;;5105796;28;20054;-57
2023/08/22 01:28:45;;;;;;;11.48;6.95;;;;;;;;;;5090692;28;20036;-57
2023/08/22 01:31:30;;;;;;;10.65;7.53;;;;;;;;;;5087008;28;20469;-57
2023/08/22 01:33:59;;;;;;;11.70;6.57;;;;;;;;;;5084855;27;20048;-57
2023/08/22 01:36:25;;;;;;;13.38;6.95;;;;;;;;;;5081042;28;20173;-57
2023/08/22 01:38:53;;;;;;;10.02;6.38;;;;;;;;;;5102609;28;20072;-56
2023/08/22 01:41:20;;;;;;;10.32;6.25;;;;;;;;;;5087420;28;20040;-57
2023/08/22 01:43:46;;;;;;;11.32;6.50;;;;;;;;;;5096848;28;20054;-57
2023/08/22 01:46:12;;;;;;;11.80;6.72;;;;;;;;;;5094479;28;20040;-57
2023/08/22 01:48:39;;;;;;;10.05;6.40;;;;;;;;;;5083506;28;20040;-57
2023/08/22 01:51:05;;;;;;;14.15;7.10;;;;;;;;;;5076896;28;20424;-57
2023/08/22 01:53:31;;;;;;;15.88;6.72;;;;;;;;;;5082973;28;20064;-57
2023/08/22 01:56:01;;;;;;;14.70;7.38;;;;;;;;;;5093286;28;21867;-57
2023/08/22 01:58:28;;;;;;;14.52;6.80;;;;;;;;;;5083407;28;20071;-57
2023/08/22 02:00:54;;;;;;;12.98;6.90;;;;;;;;;;5084619;28;20066;-57
2023/08/22 02:03:21;;;;;;;10.88;6.57;;;;;;;;;;5078954;28;20499;-57
2023/08/22 02:05:47;;;;;;;10.85;6.78;;;;;;;;;;5083066;28;20051;-57
2023/08/22 02:08:14;;;;;;;17.75;7.03;;;;;;;;;;5088209;28;20118;-57
2023/08/22 02:10:40;;;;;;;13.88;6.57;;;;;;;;;;5080943;28;20547;-57
2023/08/22 02:13:07;;;;;;;11.52;6.60;;;;;;;;;;5082420;28;20131;-57
2023/08/22 02:15:33;;;;;;;11.48;6.93;;;;;;;;;;5086097;28;20500;-57
2023/08/22 02:17:59;;;;;;;10.88;6.32;;;;;;;;;;5085507;28;20040;-57
2023/08/22 02:20:25;;;;;;;10.07;6.32;;;;;;;;;;5084485;28;20123;-57
2023/08/22 02:22:53;;;;;;;7.93;5.82;;;;;;;;;;5089289;28;20036;-57
2023/08/22 02:25:19;;;;;;;9.98;6.40;;;;;;;;;;5080935;28;20372;-57
2023/08/22 02:27:45;;;;;;;10.15;6.15;;;;;;;;;;5077873;28;20363;-57
2023/08/22 02:30:12;;;;;;;11.35;5.05;;;;;;;;;;5085339;28;20047;-57
2023/08/22 02:32:38;;;;;;;10.27;4.50;;;;;;;;;;5098131;28;20063;-57
2023/08/22 02:35:04;;;;;;;5.72;3.85;;;;;;;;;;5086632;28;20120;-57
2023/08/22 02:37:30;;;;;;;44.92;4.65;;;;;;;;;;5081396;28;20044;-57
2023/08/22 02:39:56;;;;;;;57.88;3.70;;;;;;;;;;5083293;28;20063;-57
2023/08/22 02:42:23;;;;;;;37.63;2.97;;;;;;;;;;5079934;28;20054;-57
2023/08/22 02:44:49;;;;;;;62.75;2.83;;;;;;;;;;5081030;28;20048;-57
2023/08/22 02:47:16;;;;;;;23.80;2.63;;;;;;;;;;5080597;28;20047;-57
2023/08/22 02:49:42;;;;;;;6.53;2.05;;;;;;;;;;5082362;28;20063;-57
2023/08/22 02:52:08;;;;;;;5.35;2.60;;;;;;;;;;5102033;28;20044;-57
2023/08/22 02:54:34;;;;;;;4.78;2.83;;;;;;;;;;5103640;28;20043;-57
2023/08/22 02:57:01;;;;;;;5.53;2.92;;;;;;;;;;5099759;28;20115;-57
2023/08/22 02:59:27;;;;;;;4.85;2.90;;;;;;;;;;5078683;28;20439;-57
2023/08/22 03:01:53;;;;;;;5.70;2.97;;;;;;;;;;5086984;28;20469;-57
2023/08/22 03:04:19;;;;;;;5.32;2.70;;;;;;;;;;5086273;28;20046;-57
2023/08/22 03:06:46;;;;;;;6.25;3.50;;;;;;;;;;5083620;28;20059;-57
2023/08/22 03:09:13;;;;;;;6.90;3.72;;;;;;;;;;5085036;28;20063;-58
2023/08/22 03:11:39;;;;;;;7.00;4.88;;;;;;;;;;5084282;28;20147;-57
2023/08/22 03:14:06;;;;;;;6.55;4.30;;;;;;;;;;5086055;28;20052;-56
2023/08/22 03:16:32;;;;;;;9.07;4.60;;;;;;;;;;5087315;28;20249;-57
2023/08/22 03:18:58;;;;;;;8.55;4.38;;;;;;;;;;5086125;28;20281;-56
2023/08/22 03:21:24;;;;;;;8.55;4.07;;;;;;;;;;5084302;28;20045;-57
2023/08/22 03:23:51;;;;;;;7.47;4.50;;;;;;;;;;5088930;28;20177;-57
2023/08/22 03:26:17;;;;;;;9.73;4.90;;;;;;;;;;5085529;28;20081;-57
2023/08/22 03:28:43;;;;;;;11.77;5.03;;;;;;;;;;5087453;28;20063;-57
2023/08/22 03:31:09;;;;;;;38.38;5.78;;;;;;;;;;5086204;28;20184;-57
2023/08/22 03:33:35;;;;;;;16.98;4.80;;;;;;;;;;5094033;28;20140;-57
2023/08/22 03:36:01;;;;;;;15.88;2.55;;;;;;;;;;5105761;28;20051;-57
2023/08/22 03:38:27;;;;;;;6.72;2.60;;;;;;;;;;5095055;28;20612;-57
2023/08/22 03:40:55;;;;;;;5.85;3.22;;;;;;;;;;5100206;28;20054;-57
2023/08/22 03:43:21;;;;;;;10.27;3.25;;;;;;;;;;5099790;28;20040;-57
2023/08/22 03:45:48;;;;;;;20.88;3.50;;;;;;;;;;5095831;28;20050;-57
2023/08/22 03:48:14;;;;;;;8.15;4.10;;;;;;;;;;5102528;28;20047;-57
2023/08/22 03:50:41;;;;;;;8.98;3.38;;;;;;;;;;5107388;28;20051;-57
2023/08/22 03:53:07;;;;;;;6.72;3.70;;;;;;;;;;5099001;28;20488;-57
2023/08/22 03:55:34;;;;;;;8.35;3.38;;;;;;;;;;5114917;27;20392;-57
2023/08/22 03:58:00;;;;;;;5.63;3.35;;;;;;;;;;5105436;28;20498;-57
2023/08/22 04:00:26;;;;;;;7.15;4.15;;;;;;;;;;5096721;28;20039;-57
2023/08/22 04:02:59;;;;;;;10.15;4.97;;;;;;;;;;5088248;28;20062;-57
2023/08/22 04:05:25;;;;;;;8.50;4.13;;;;;;;;;;5085872;28;20036;-57
2023/08/22 04:07:52;;;;;;;159.88;7.32;;;;;;;;;;5084886;28;20134;-57
2023/08/22 04:10:19;;;;;;;167.68;6.53;;;;;;;;;;5084272;28;20044;-56
2023/08/22 04:12:45;;;;;;;158.90;8.30;;;;;;;;;;5085072;28;21301;-57
2023/08/22 04:15:12;;;;;;;119.03;6.75;;;;;;;;;;5084165;28;20068;-57
2023/08/22 04:17:42;;;;;;;206.75;8.88;;;;;;;;;;5084040;28;20059;-57
2023/08/22 04:20:12;;;;;;;165.63;7.75;;;;;;;;;;5084613;28;20089;-57
2023/08/22 04:22:40;;;;;;;29.55;6.15;;;;;;;;;;5086605;28;20036;-57
2023/08/22 04:25:06;;;;;;;6.05;4.00;;;;;;;;;;5082996;28;20048;-56
2023/08/22 04:27:32;;;;;;;4.30;3.10;;;;;;;;;;5103052;28;20051;-57
2023/08/22 04:30:00;;;;;;;5.55;3.20;;;;;;;;;;5085881;28;20044;-56
2023/08/22 04:32:26;;;;;;;4.72;3.10;;;;;;;;;;5086095;28;20715;-57
2023/08/22 04:34:52;;;;;;;29.45;3.80;;;;;;;;;;5088220;28;20059;-57
2023/08/22 04:37:19;;;;;;;13.40;6.55;;;;;;;;;;5089500;28;20056;-57
2023/08/22 04:39:45;;;;;;;19.48;4.80;;;;;;;;;;5093617;28;20048;-57
2023/08/22 04:42:11;;;;;;;49.10;5.53;;;;;;;;;;5094629;28;20116;-57
2023/08/22 04:44:37;;;;;;;34.97;6.05;;;;;;;;;;5095953;28;20105;-57
2023/08/22 04:47:03;;;;;;;98.03;4.47;;;;;;;;;;5107847;28;20040;-57
2023/08/22 04:49:30;;;;;;;83.40;5.65;;;;;;;;;;5087057;28;20041;-57
2023/08/22 04:51:56;;;;;;;101.25;4.45;;;;;;;;;;5082346;28;20087;-56
2023/08/22 04:54:22;;;;;;;34.90;2.95;;;;;;;;;;5083969;28;20079;-57
2023/08/22 04:56:48;;;;;;;40.55;4.13;;;;;;;;;;5084128;28;20111;-57
2023/08/22 04:59:15;;;;;;;105.60;5.10;;;;;;;;;;5083191;28;20036;-57
2023/08/22 05:01:41;;;;;;;42.40;5.05;;;;;;;;;;5091183;28;20414;-57
2023/08/22 05:04:07;;;;;;;27.90;5.45;;;;;;;;;;5091712;28;20172;-57
2023/08/22 05:06:33;;;;;;;8.23;5.10;;;;;;;;;;5098562;28;20043;-56
2023/08/22 05:09:03;;;;;;;19.95;5.10;;;;;;;;;;5105614;28;20084;-57
2023/08/22 05:11:29;;;;;;;10.60;6.20;;;;;;;;;;5084070;28;20109;-57
2023/08/22 05:13:55;;;;;;;13.15;5.55;;;;;;;;;;5109971;28;20047;-57
2023/08/22 05:16:21;;;;;;;5.95;3.88;;;;;;;;;;5092090;28;20043;-57
2023/08/22 05:18:47;;;;;;;5.55;3.70;;;;;;;;;;5091837;28;20074;-57
2023/08/22 05:21:13;;;;;;;8.07;3.78;;;;;;;;;;5087925;28;20201;-56
2023/08/22 05:23:40;;;;;;;5.88;3.85;;;;;;;;;;5095680;28;20052;-57
2023/08/22 05:26:06;;;;;;;16.00;3.85;;;;;;;;;;5094293;28;20499;-57
2023/08/22 05:28:32;;;;;;;7.20;4.00;;;;;;;;;;5092321;28;20398;-59
2023/08/22 05:30:58;;;;;;;7.97;4.65;;;;;;;;;;5088855;28;20036;-58
2023/08/22 05:33:24;;;;;;;7.40;5.75;;;;;;;;;;5089975;28;20052;-58
2023/08/22 05:35:50;;;;;;;11.95;6.40;;;;;;;;;;5088727;28;20048;-58
2023/08/22 05:38:17;;;;;;;9.50;6.90;;;;;;;;;;5091496;28;20058;-58
2023/08/22 05:40:43;;;;;;;13.48;8.18;;;;;;;;;;5089793;28;20571;-58
2023/08/22 05:43:09;;;;;;;9.38;6.43;;;;;;;;;;5088014;28;20040;-58
2023/08/22 05:45:35;;;;;;;10.07;6.93;;;;;;;;;;5087059;28;20072;-58
2023/08/22 05:48:01;;;;;;;14.10;9.15;;;;;;;;;;5087607;28;20376;-57
2023/08/22 05:50:28;;;;;;;12.90;8.77;;;;;;;;;;5089929;28;20109;-58
2023/08/22 05:52:54;;;;;;;15.68;9.88;;;;;;;;;;5091533;28;20055;-58
2023/08/22 05:55:20;;;;;;;15.98;11.85;;;;;;;;;;5088645;28;20171;-58
2023/08/22 05:57:46;;;;;;;15.07;11.48;;;;;;;;;;5091505;28;20044;-58
2023/08/22 06:00:13;;;;;;;16.27;12.38;;;;;;;;;;5090816;28;20038;-58
2023/08/22 06:02:40;;;;;;;19.80;13.90;;;;;;;;;;5093985;28;20036;-58
2023/08/22 06:05:06;;;;;;;21.17;14.80;;;;;;;;;;5090127;28;20043;-58
2023/08/22 06:07:33;;;;;;;27.38;15.30;;;;;;;;;;5093637;28;20108;-58
2023/08/22 06:10:00;;;;;;;20.65;14.70;;;;;;;;;;5087194;28;20080;-59
2023/08/22 06:12:27;;;;;;;22.38;15.52;;;;;;;;;;5087289;28;20058;-58
2023/08/22 06:14:53;;;;;;;24.15;15.18;;;;;;;;;;5094460;28;20044;-57
2023/08/22 06:17:19;;;;;;;27.27;15.57;;;;;;;;;;5094203;28;20464;-58
2023/08/22 06:19:48;;;;;;;23.63;14.73;;;;;;;;;;5089190;28;20078;-58
2023/08/22 06:22:14;;;;;;;21.60;15.02;;;;;;;;;;5093169;28;20047;-58
2023/08/22 06:24:41;;;;;;;21.15;13.77;;;;;;;;;;5088291;28;20046;-58
2023/08/22 06:27:07;;;;;;;21.65;14.82;;;;;;;;;;5088400;28;20122;-58
2023/08/22 06:29:33;;;;;;;30.35;16.70;;;;;;;;;;5104386;28;20161;-58
2023/08/22 06:32:02;;;;;;;24.10;16.38;;;;;;;;;;5087739;28;20123;-58
2023/08/22 06:34:31;;;;;;;25.17;15.95;;;;;;;;;;5087969;28;20570;-58
2023/08/22 06:36:57;;;;;;;23.27;15.55;;;;;;;;;;5089480;28;20464;-58
2023/08/22 06:39:23;;;;;;;25.58;14.63;;;;;;;;;;5090785;28;20536;-58
2023/08/22 06:41:49;;;;;;;23.67;14.63;;;;;;;;;;5090188;28;20130;-58
2023/08/22 06:44:16;;;;;;;20.75;14.07;;;;;;;;;;5088542;28;20036;-58
2023/08/22 06:46:42;;;;;;;23.45;15.07;;;;;;;;;;5088606;28;20071;-59
2023/08/22 06:49:09;;;;;;;21.88;13.93;;;;;;;;;;5096305;28;20036;-58
2023/08/22 06:51:35;;;;;;;16.67;12.15;;;;;;;;;;5094186;28;20102;-58
2023/08/22 06:54:01;;;;;;;17.58;12.70;;;;;;;;;;5087613;28;21946;-58
2023/08/22 06:56:27;;;;;;;18.60;11.75;;;;;;;;;;5095370;28;20081;-58
2023/08/22 06:58:53;;;;;;;20.30;11.38;;;;;;;;;;5084305;28;20121;-58
2023/08/22 07:01:20;;;;;;;16.45;9.52;;;;;;;;;;5091095;28;20078;-58
2023/08/22 07:03:46;;;;;;;17.13;9.50;;;;;;;;;;5086908;28;20044;-58
2023/08/22 07:06:12;;;;;;;15.15;10.63;;;;;;;;;;5098568;28;20032;-60
2023/08/22 07:08:38;;;;;;;15.30;9.30;;;;;;;;;;5104404;28;20505;-59
2023/08/22 07:11:05;;;;;;;13.30;9.25;;;;;;;;;;5107206;28;20059;-59
2023/08/22 07:13:31;;;;;;;18.25;9.77;;;;;;;;;;5099616;28;20062;-58
2023/08/22 07:15:58;;;;;;;15.35;10.13;;;;;;;;;;5103294;28;20111;-58
2023/08/22 07:18:24;;;;;;;13.45;9.65;;;;;;;;;;5101797;28;20047;-58
2023/08/22 07:20:51;;;;;;;14.52;8.52;;;;;;;;;;5099937;28;20111;-59
2023/08/22 07:23:21;;;;;;;16.35;8.98;;;;;;;;;;5110148;28;20438;-59
2023/08/22 07:25:48;;;;;;;13.13;9.77;;;;;;;;;;5107343;28;20044;-59
2023/08/22 07:28:14;;;;;;;10.70;7.40;;;;;;;;;;5100781;28;20047;-58
2023/08/22 07:30:41;;;;;;;11.50;7.57;;;;;;;;;;5109085;28;20427;-59
2023/08/22 07:33:07;;;;;;;15.27;8.75;;;;;;;;;;5096593;28;20075;-59
2023/08/22 07:35:36;;;;;;;11.45;7.90;;;;;;;;;;5101772;28;20379;-59
2023/08/22 07:38:02;;;;;;;12.88;7.90;;;;;;;;;;5106177;28;20115;-59
2023/08/22 07:40:29;;;;;;;20.25;9.23;;;;;;;;;;5093688;28;20573;-59
2023/08/22 07:42:55;;;;;;;11.75;7.70;;;;;;;;;;5102917;28;20039;-58
2023/08/22 07:45:22;;;;;;;12.48;7.53;;;;;;;;;;5108685;28;20059;-59
2023/08/22 07:47:48;;;;;;;13.43;7.53;;;;;;;;;;5110552;28;20104;-59
2023/08/22 07:50:14;;;;;;;13.40;7.15;;;;;;;;;;5099786;28;20423;-59
2023/08/22 07:52:41;;;;;;;18.15;7.72;;;;;;;;;;5104159;28;20468;-58
2023/08/22 07:55:07;;;;;;;18.10;7.68;;;;;;;;;;5112930;28;20044;-59
2023/08/22 07:57:33;;;;;;;17.67;7.85;;;;;;;;;;5112323;28;20501;-59
2023/08/22 08:00:00;;;;;;;13.57;7.15;;;;;;;;;;5108758;28;20032;-59
2023/08/22 08:02:27;;;;;;;11.35;6.95;;;;;;;;;;5097054;28;20173;-58
2023/08/22 08:04:53;;;;;;;9.77;6.20;;;;;;;;;;5098955;28;20101;-58
2023/08/22 08:07:19;;;;;;;11.27;6.63;;;;;;;;;;5106877;28;20047;-59
2023/08/22 08:09:46;;;;;;;15.43;7.55;;;;;;;;;;5112630;28;20100;-58
2023/08/22 08:12:12;;;;;;;12.27;6.43;;;;;;;;;;5108659;28;20515;-58
2023/08/22 08:14:38;;;;;;;13.23;7.57;;;;;;;;;;5111274;28;20044;-59
2023/08/22 08:17:04;;;;;;;12.52;6.90;;;;;;;;;;5100227;28;20080;-58
2023/08/22 08:19:31;;;;;;;9.85;6.32;;;;;;;;;;5096419;28;20403;-58
2023/08/22 08:21:57;;;;;;;13.93;7.13;;;;;;;;;;5097838;28;20039;-58
2023/08/22 08:24:23;;;;;;;17.45;7.40;;;;;;;;;;5106854;28;20089;-58
2023/08/22 08:26:49;;;;;;;11.95;7.30;;;;;;;;;;5106214;28;20359;-63
2023/08/22 08:29:17;;;;;;;10.82;6.72;;;;;;;;;;5098499;28;20048;-58
2023/08/22 08:31:43;;;;;;;13.18;7.30;;;;;;;;;;5097944;28;20127;-58
2023/08/22 08:34:10;;;;;;;13.68;8.05;;;;;;;;;;5103374;28;20502;-58
2023/08/22 08:36:36;;;;;;;13.32;7.97;;;;;;;;;;5104690;28;20040;-58
2023/08/22 08:39:03;;;;;;;16.50;7.78;;;;;;;;;;5096523;28;20502;-58
2023/08/22 08:41:33;;;;;;;13.88;8.77;;;;;;;;;;5096637;28;20067;-57
2023/08/22 08:44:00;;;;;;;14.55;8.30;;;;;;;;;;5097234;28;20040;-57
2023/08/22 08:46:29;;;;;;;16.77;8.50;;;;;;;;;;5109535;28;20157;-58
2023/08/22 08:48:55;;;;;;;12.55;7.47;;;;;;;;;;5111524;28;20118;-58
2023/08/22 08:51:22;;;;;;;14.77;8.80;;;;;;;;;;5112016;28;20036;-58
2023/08/22 08:53:49;;;;;;;12.90;8.00;;;;;;;;;;5106377;28;20053;-58
2023/08/22 08:56:16;;;;;;;13.82;8.65;;;;;;;;;;5105339;28;20036;-57
2023/08/22 08:58:43;;;;;;;17.00;10.40;;;;;;;;;;5088470;28;20047;-58
2023/08/22 09:01:10;;;;;;;16.75;9.90;;;;;;;;;;5106913;28;20103;-58
2023/08/22 09:03:36;;;;;;;14.15;10.27;;;;;;;;;;5094417;28;20126;-58
2023/08/22 09:06:02;;;;;;;19.92;10.52;;;;;;;;;;5094890;28;20527;-58
2023/08/22 09:08:28;;;;;;;16.13;11.07;;;;;;;;;;5090844;28;20139;-58
2023/08/22 09:10:57;;;;;;;15.52;10.00;;;;;;;;;;5097471;28;20071;-58
2023/08/22 09:13:30;;;;;;;14.90;10.80;;;;;;;;;;5090784;28;20044;-58
2023/08/22 09:16:00;;;;;;;20.45;10.18;;;;;;;;;;5093487;28;20048;-58
2023/08/22 09:18:29;;;;;;;15.80;9.07;;;;;;;;;;5111591;28;20044;-58
2023/08/22 09:21:04;;;;;;;15.23;9.43;;;;;;;;;;5112457;28;20048;-58
2023/08/22 09:23:34;;;;;;;14.35;9.45;;;;;;;;;;5097542;28;20044;-58
2023/08/22 09:26:02;;;;;;;15.23;8.52;;;;;;;;;;5099426;28;20131;-58
2023/08/22 09:28:28;;;;;;;15.02;7.88;;;;;;;;;;5097993;28;20050;-58
2023/08/22 09:31:01;;;;;;;11.75;8.00;;;;;;;;;;5104453;28;20092;-58
2023/08/22 09:33:27;;;;;;;12.45;7.78;;;;;;;;;;5100305;28;20130;-58
2023/08/22 09:35:57;;;;;;;12.10;7.80;;;;;;;;;;5111036;28;20047;-58
2023/08/22 09:38:23;;;;;;;12.80;7.85;;;;;;;;;;5090343;28;20088;-59
2023/08/22 09:40:50;;;;;;;36.58;10.02;;;;;;;;;;5100482;28;20039;-58
2023/08/22 09:43:19;;;;;;;12.43;6.93;;;;;;;;;;5093860;28;20487;-58
2023/08/22 09:45:45;;;;;;;15.07;7.70;;;;;;;;;;5112194;28;20169;-58
2023/08/22 09:48:19;;;;;;;11.98;6.20;;;;;;;;;;5111171;28;20070;-58
2023/08/22 09:50:48;;;;;;;11.82;6.45;;;;;;;;;;5111809;28;20051;-58
2023/08/22 09:53:14;;;;;;;16.58;7.78;;;;;;;;;;5096689;28;20051;-58
2023/08/22 09:55:41;;;;;;;12.98;6.65;;;;;;;;;;5111497;28;20165;-58
2023/08/22 09:58:08;;;;;;;10.98;5.93;;;;;;;;;;5092814;27;20897;-58
2023/08/22 10:00:35;;;;;;;11.65;6.13;;;;;;;;;;5096784;28;20104;-58
2023/08/22 10:03:02;;;;;;;16.83;7.05;;;;;;;;;;5091091;28;20411;-58
2023/08/22 10:05:31;;;;;;;7.63;5.32;;;;;;;;;;5103953;28;20098;-58
2023/08/22 10:07:57;;;;;;;11.85;6.20;;;;;;;;;;5101270;28;20063;-58
2023/08/22 10:10:23;;;;;;;11.75;6.10;;;;;;;;;;5099279;28;20369;-58
2023/08/22 10:12:50;;;;;;;10.75;6.38;;;;;;;;;;5092537;28;20111;-58
2023/08/22 10:15:16;;;;;;;16.95;6.22;;;;;;;;;;5098091;28;20475;-58
2023/08/22 10:17:44;;;;;;;8.82;5.65;;;;;;;;;;5089650;28;20052;-58
2023/08/22 10:20:12;;;;;;;11.57;5.28;;;;;;;;;;5090127;28;20040;-58
2023/08/22 10:22:38;;;;;;;9.27;5.32;;;;;;;;;;5080760;28;20093;-58
2023/08/22 10:25:05;;;;;;;9.07;5.38;;;;;;;;;;5088574;28;20089;-58
2023/08/22 10:27:32;;;;;;;23.77;6.00;;;;;;;;;;5091038;28;20044;-58
2023/08/22 10:30:14;;;;;;;10.85;5.65;;;;;;;;;;5089317;28;20048;-59
2023/08/22 10:32:41;;;;;;;12.05;6.13;;;;;;;;;;5083719;28;20071;-59
2023/08/22 10:35:12;;;;;;;7.25;3.63;;;;;;;;;;5088491;28;20036;-59
2023/08/22 10:37:49;;;;;;;9.05;5.20;;;;;;;;;;5089582;28;20048;-59
2023/08/22 10:40:28;;;;;;;12.02;6.55;;;;;;;;;;5085010;28;20142;-59
2023/08/22 10:43:24;;;;;;;9.57;4.53;;;;;;;;;;5088236;28;20096;-59
2023/08/22 10:45:50;;;;;;;11.27;5.15;;;;;;;;;;5086686;28;20494;-59
2023/08/22 10:48:21;;;;;;;9.77;4.57;;;;;;;;;;5089192;28;20081;-59
2023/08/22 10:50:49;;;;;;;7.05;3.75;;;;;;;;;;5088163;28;20120;-59
2023/08/22 10:53:25;;;;;;;8.15;3.88;;;;;;;;;;5089622;28;20080;-59
2023/08/22 10:55:52;;;;;;;11.32;3.80;;;;;;;;;;5085716;28;20044;-59
2023/08/22 10:58:35;;;;;;;6.25;3.80;;;;;;;;;;5088800;28;20044;-59
2023/08/22 11:01:01;;;;;;;;;;;;;;;;;;5089182;28;20483;-59
2023/08/22 11:03:27;;;;;;;6.47;2.90;;;;;;;;;;5089827;28;19975;-59
2023/08/22 11:05:53;;;;;;;9.38;2.85;;;;;;;;;;5105154;28;20044;-59
2023/08/22 11:08:20;;;;;;;7.40;4.07;;;;;;;;;;5103480;28;20108;-59
2023/08/22 11:10:46;;;;;;;7.43;3.25;;;;;;;;;;5102771;28;20200;-59
2023/08/22 11:13:12;;;;;;;7.47;4.28;;;;;;;;;;5110272;28;20126;-59
2023/08/22 11:15:40;;;;;;;7.65;4.00;;;;;;;;;;5110271;28;20552;-59
2023/08/22 11:18:07;;;;;;;7.00;3.83;;;;;;;;;;5102072;28;20115;-59
2023/08/22 11:20:33;;;;;;;10.52;4.72;;;;;;;;;;5110215;28;20047;-59
2023/08/22 11:23:00;;;;;;;7.18;3.30;;;;;;;;;;5106154;28;20116;-59
2023/08/22 11:25:27;;;;;;;6.20;3.38;;;;;;;;;;5103892;28;20506;-59
2023/08/22 11:27:53;;;;;;;9.23;4.50;;;;;;;;;;5102040;28;20066;-59
2023/08/22 11:30:20;;;;;;;11.27;4.07;;;;;;;;;;5108208;28;20032;-60
2023/08/22 11:32:46;;;;;;;8.32;4.70;;;;;;;;;;5086809;28;20555;-59
2023/08/22 11:35:12;;;;;;;9.70;4.18;;;;;;;;;;5106742;28;20071;-59
2023/08/22 11:37:39;;;;;;;9.00;4.22;;;;;;;;;;5094712;27;20128;-59
2023/08/22 11:40:10;;;;;;;9.70;3.90;;;;;;;;;;5107327;28;20051;-60
2023/08/22 11:42:37;;;;;;;9.23;3.92;;;;;;;;;;5099652;28;20040;-60
2023/08/22 11:45:08;;;;;;;13.35;4.30;;;;;;;;;;5107953;28;20130;-60
2023/08/22 11:47:37;;;;;;;8.60;3.97;;;;;;;;;;5101589;28;20123;-60
2023/08/22 11:50:04;;;;;;;9.43;3.97;;;;;;;;;;5113223;28;20052;-60
2023/08/22 11:52:30;;;;;;;8.95;3.90;;;;;;;;;;5114118;28;20153;-59
2023/08/22 11:55:07;;;;;;;8.70;4.35;;;;;;;;;;5105772;28;20039;-59
2023/08/22 11:57:38;;;;;;;6.97;3.47;;;;;;;;;;5086073;28;20175;-59
2023/08/22 12:00:08;;;;;;;8.18;3.83;;;;;;;;;;5099251;28;20408;-60
2023/08/22 12:02:34;;;;;;;10.88;3.92;;;;;;;;;;5099291;28;20043;-59
2023/08/22 12:05:00;;;;;;;9.43;3.58;;;;;;;;;;5113622;28;20039;-60
2023/08/22 12:07:26;;;;;;;6.93;3.60;;;;;;;;;;5093005;28;20090;-59
2023/08/22 12:09:59;;;;;;;8.80;4.22;;;;;;;;;;5111455;28;20406;-59
2023/08/22 12:12:26;;;;;;;8.13;3.78;;;;;;;;;;5107454;28;20040;-59
2023/08/22 12:14:52;;;;;;;8.40;4.10;;;;;;;;;;5103384;28;20051;-59
2023/08/22 12:17:19;;;;;;;9.90;4.72;;;;;;;;;;5105485;28;20079;-59
2023/08/22 12:19:45;;;;;;;8.57;3.63;;;;;;;;;;5113427;28;20040;-59
2023/08/22 12:22:11;;;;;;;8.18;3.42;;;;;;;;;;5112747;27;20051;-59
2023/08/22 12:24:37;;;;;;;10.70;4.65;;;;;;;;;;5093552;27;20117;-59
2023/08/22 12:27:04;;;;;;;7.05;3.58;;;;;;;;;;5098689;28;20071;-59
2023/08/22 12:29:30;;;;;;;7.88;3.72;;;;;;;;;;5106696;28;20059;-59
2023/08/22 12:31:56;;;;;;;9.20;3.47;;;;;;;;;;5113175;28;20084;-60
2023/08/22 12:34:22;;;;;;;6.57;3.10;;;;;;;;;;5112786;28;20184;-60
2023/08/22 12:36:48;;;;;;;6.28;3.05;;;;;;;;;;5102344;28;20039;-59
2023/08/22 12:39:14;;;;;;;11.20;4.53;;;;;;;;;;5109459;28;20084;-59
2023/08/22 12:41:41;;;;;;;7.65;4.05;;;;;;;;;;5112987;28;20051;-59
2023/08/22 12:44:07;;;;;;;9.30;3.65;;;;;;;;;;5105310;28;20511;-59
2023/08/22 12:46:33;;;;;;;10.48;3.47;;;;;;;;;;5110067;28;20522;-59
2023/08/22 12:48:59;;;;;;;7.53;2.65;;;;;;;;;;5112995;28;20051;-59
2023/08/22 12:51:25;;;;;;;9.40;3.80;;;;;;;;;;5098300;28;20440;-58
2023/08/22 12:53:52;;;;;;;7.88;3.08;;;;;;;;;;5099386;28;20043;-58
2023/08/22 12:56:18;;;;;;;7.70;2.53;;;;;;;;;;5091894;28;20071;-59
2023/08/22 12:58:44;;;;;;;7.93;2.70;;;;;;;;;;5097865;28;20558;-58
2023/08/22 13:01:14;;;;;;;5.97;3.03;;;;;;;;;;5095723;28;20044;-59
2023/08/22 13:03:40;;;;;;;9.50;3.50;;;;;;;;;;5099699;28;20134;-58
2023/08/22 13:06:06;;;;;;;8.15;3.45;;;;;;;;;;5097719;27;20116;-58
2023/08/22 13:08:33;;;;;;;8.40;4.20;;;;;;;;;;5101602;28;20048;-59
2023/08/22 13:10:59;;;;;;;7.47;3.35;;;;;;;;;;5111489;28;20130;-58
2023/08/22 13:13:26;;;;;;;10.80;4.18;;;;;;;;;;5105488;28;20044;-59
2023/08/22 13:15:52;;;;;;;8.85;3.88;;;;;;;;;;5110814;28;20051;-58
2023/08/22 13:18:18;;;;;;;8.38;4.30;;;;;;;;;;5074630;28;20080;-59
2023/08/22 13:20:44;;;;;;;9.63;4.10;;;;;;;;;;5100257;28;20530;-59
2023/08/22 13:23:11;;;;;;;7.10;3.88;;;;;;;;;;5099255;28;20127;-59
2023/08/22 13:25:37;;;;;;;11.80;4.45;;;;;;;;;;5111621;28;20044;-59
2023/08/22 13:28:03;;;;;;;9.57;4.40;;;;;;;;;;5098927;28;20036;-58
2023/08/22 13:30:29;;;;;;;9.73;4.40;;;;;;;;;;5106885;28;20039;-58
2023/08/22 13:32:55;;;;;;;7.75;4.82;;;;;;;;;;5107641;28;20051;-59
2023/08/22 13:35:22;;;;;;;9.20;4.65;;;;;;;;;;5103215;28;20032;-58
2023/08/22 13:37:48;;;;;;;11.13;4.93;;;;;;;;;;5091870;28;20083;-58
2023/08/22 13:40:14;;;;;;;12.13;5.10;;;;;;;;;;5109778;28;20471;-58
2023/08/22 13:42:40;;;;;;;10.77;5.32;;;;;;;;;;5098126;28;20044;-58
2023/08/22 13:45:07;;;;;;;12.20;5.88;;;;;;;;;;5092630;28;20158;-58
2023/08/22 13:47:33;;;;;;;8.35;4.57;;;;;;;;;;5099902;28;20051;-58
2023/08/22 13:49:59;;;;;;;8.70;4.10;;;;;;;;;;5100456;28;20108;-59
2023/08/22 13:52:26;;;;;;;7.88;4.50;;;;;;;;;;5097795;28;20055;-58
2023/08/22 13:54:52;;;;;;;8.05;4.53;;;;;;;;;;5098314;28;20040;-58
2023/08/22 13:57:19;;;;;;;8.73;4.40;;;;;;;;;;5094865;28;20204;-58
2023/08/22 13:59:46;;;;;;;11.18;5.07;;;;;;;;;;5101732;28;20395;-58
2023/08/22 14:02:12;;;;;;;10.50;6.15;;;;;;;;;;5103162;28;20055;-58
2023/08/22 14:04:38;;;;;;;10.48;5.72;;;;;;;;;;5100019;28;20043;-58
2023/08/22 14:07:04;;;;;;;11.48;5.40;;;;;;;;;;5110725;28;20050;-58
2023/08/22 14:09:31;;;;;;;9.00;5.78;;;;;;;;;;5111315;28;20040;-58
2023/08/22 14:11:57;;;;;;;10.43;6.47;;;;;;;;;;5091803;28;20051;-58
2023/08/22 14:14:23;;;;;;;9.15;5.07;;;;;;;;;;5103419;28;20348;-58
2023/08/22 14:16:50;;;;;;;8.73;6.10;;;;;;;;;;5105860;28;20039;-58
2023/08/22 14:19:16;;;;;;;10.65;4.68;;;;;;;;;;5111287;28;20100;-58
2023/08/22 14:21:42;;;;;;;9.75;4.70;;;;;;;;;;5105287;28;20071;-59
2023/08/22 14:24:09;;;;;;;8.77;4.40;;;;;;;;;;5094730;28;20076;-58
2023/08/22 14:26:36;;;;;;;8.18;4.22;;;;;;;;;;5100958;28;20454;-58
2023/08/22 14:29:02;;;;;;;8.20;5.30;;;;;;;;;;5110728;28;20079;-59
2023/08/22 14:31:28;;;;;;;9.68;3.75;;;;;;;;;;5098376;28;20449;-58